In Rescue
 
Open Full Screen Window  High Contrast Mode
Wind Gusting 00 knots
06
July 22, 2019 5:41 PM EDT
Present Weather: Light Rain
Weather Information
Wind Direction
  340 °
Wind Speed
  06 kt (7 mph)
Wind Gust
  00 kt (0 mph)
Altimeter
29.94 in
Visibility
10 SM
Temperature
22° C
72° F
Dewpoint
18° C
64° F
Humidity
78%
1hr Rain Fall
00.01 in.
24hr Rain Fall
00.02 in.
Sky Condition
Broken @ 4,400 ft
Scattered @ 3,400 ft
Scattered @ 2,300 ft
VFR

METAR KDLZ 222141Z AUTO 34006KT 10SM -RA SCT023 SCT034 BKN044 22/18 A2994 RMK AO2 P0001

FAA Disclaimer: The data displayed is for advisory purposes only and is not to be used for flight planning or operations.